createdAt,value
2019-03-13T00:01:41.629Z,99004.28
2019-03-13T00:04:12.894Z,99004.98
2019-03-13T00:06:44.461Z,99011.88
2019-03-13T00:09:15.923Z,98995.55
2019-03-13T00:11:47.449Z,98993.74
2019-03-13T00:14:18.670Z,98989.42
2019-03-13T00:16:50.202Z,98995.20
2019-03-13T00:19:22.131Z,98985.89
2019-03-13T00:21:54.047Z,99003.30
2019-03-13T00:24:25.551Z,99008.09
2019-03-13T00:26:56.913Z,99005.80
2019-03-13T00:29:28.013Z,99018.34
2019-03-13T00:32:00.225Z,99032.88
2019-03-13T00:34:31.461Z,99032.85
2019-03-13T00:37:03.530Z,99086.67
2019-03-13T00:39:34.755Z,99106.95
2019-03-13T00:42:05.981Z,99133.56
2019-03-13T00:44:37.273Z,99161.73
2019-03-13T00:47:08.862Z,99147.80
2019-03-13T00:49:40.656Z,99161.98
2019-03-13T00:52:11.938Z,99163.86
2019-03-13T00:54:43.459Z,99178.44
2019-03-13T00:57:14.840Z,99170.71
2019-03-13T00:59:46.043Z,99172.67
2019-03-13T01:02:48.450Z,99195.98
2019-03-13T01:05:28.008Z,99209.86
2019-03-13T01:07:59.195Z,99215.66
2019-03-13T01:10:30.472Z,99223.11
2019-03-13T01:13:02.108Z,99229.28
2019-03-13T01:15:33.340Z,99244.14
2019-03-13T01:18:04.569Z,99256.33
2019-03-13T01:20:36.089Z,99250.88
2019-03-13T01:23:07.330Z,99255.70
2019-03-13T01:25:38.622Z,99272.66
2019-03-13T01:28:10.203Z,99258.80
2019-03-13T01:30:50.667Z,99277.89
2019-03-13T01:33:22.975Z,99267.59
2019-03-13T01:36:00.584Z,99275.50
2019-03-13T01:38:31.799Z,99280.73
2019-03-13T01:41:03.621Z,99284.36
2019-03-13T01:43:34.981Z,99286.25
2019-03-13T01:46:06.572Z,99302.59
2019-03-13T01:48:37.742Z,99299.14
2019-03-13T01:51:09.358Z,99303.08
2019-03-13T01:53:40.585Z,99307.42
2019-03-13T01:56:12.097Z,99292.31
2019-03-13T01:58:43.327Z,99306.17
2019-03-13T02:01:14.830Z,99313.28
2019-03-13T02:03:46.971Z,99325.80
2019-03-13T02:06:18.814Z,99328.95
2019-03-13T02:08:50.083Z,99320.21
2019-03-13T02:11:22.300Z,99334.19
2019-03-13T02:13:55.103Z,99333.23
2019-03-13T02:16:26.306Z,99346.31
2019-03-13T02:18:58.558Z,99337.74
2019-03-13T02:21:29.784Z,99347.23
2019-03-13T02:24:01.376Z,99354.31
2019-03-13T02:26:32.617Z,99350.81
2019-03-13T02:29:04.320Z,99352.66
2019-03-13T02:31:36.645Z,99360.50
2019-03-13T02:34:08.212Z,99366.55
2019-03-13T02:36:39.354Z,99369.70
2019-03-13T02:39:11.260Z,99379.25
2019-03-13T02:41:42.843Z,99358.05
2019-03-13T02:44:14.378Z,99370.99
2019-03-13T02:46:45.602Z,99374.56
2019-03-13T02:49:17.148Z,99384.98
2019-03-13T02:51:48.346Z,99375.86
2019-03-13T02:54:19.833Z,99371.61
2019-03-13T02:56:51.391Z,99385.88
2019-03-13T02:59:22.607Z,99371.17
2019-03-13T03:02:17.104Z,99377.66
2019-03-13T03:04:48.726Z,99378.09
2019-03-13T03:07:19.898Z,99385.02
2019-03-13T03:09:51.132Z,99374.27
2019-03-13T03:12:22.442Z,99374.73
2019-03-13T03:15:07.319Z,99377.30
2019-03-13T03:17:39.198Z,99391.54
2019-03-13T03:20:13.991Z,99389.01
2019-03-13T03:22:45.814Z,99392.47
2019-03-13T03:25:17.758Z,99396.36
2019-03-13T03:27:49.756Z,99401.45
2019-03-13T03:30:23.185Z,99393.27
2019-03-13T03:32:55.441Z,99391.54
2019-03-13T03:35:26.780Z,99395.47
2019-03-13T03:37:58.077Z,99388.11
2019-03-13T03:40:29.304Z,99382.48
2019-03-13T03:43:01.117Z,99382.52
2019-03-13T03:45:33.853Z,99379.96
2019-03-13T03:48:05.362Z,99382.59
2019-03-13T03:50:36.524Z,99374.84
2019-03-13T03:53:07.710Z,99387.41
2019-03-13T03:55:39.083Z,99380.95
2019-03-13T03:58:10.276Z,99387.88
2019-03-13T04:00:41.980Z,99385.31
2019-03-13T04:03:13.432Z,99381.42
2019-03-13T04:05:44.944Z,99384.88
2019-03-13T04:08:16.159Z,99382.34
2019-03-13T04:10:47.403Z,99384.94
2019-03-13T04:13:18.901Z,99383.70
2019-03-13T04:15:50.493Z,99384.56
2019-03-13T04:18:21.723Z,99395.45
2019-03-13T04:20:53.015Z,99386.34
2019-03-13T04:23:24.598Z,99392.02
2019-03-13T04:25:55.835Z,99386.89
2019-03-13T04:28:27.022Z,99387.75
2019-03-13T04:30:58.651Z,99389.91
2019-03-13T04:33:30.191Z,99387.35
2019-03-13T04:36:01.423Z,99389.95
2019-03-13T04:38:32.638Z,99400.72
2019-03-13T04:41:04.238Z,99409.31
2019-03-13T04:43:35.466Z,99410.58
2019-03-13T04:46:06.693Z,99403.66
2019-03-13T04:48:38.446Z,99404.53
2019-03-13T04:51:10.328Z,99414.06
2019-03-13T04:53:41.907Z,99412.34
2019-03-13T04:56:13.432Z,99419.70
2019-03-13T04:58:45.285Z,99421.41
2019-03-13T05:01:16.777Z,99416.61
2019-03-13T05:03:48.042Z,99415.77
2019-03-13T05:06:23.952Z,99414.04
2019-03-13T05:09:04.662Z,99410.09
2019-03-13T05:11:35.922Z,99405.74
2019-03-13T05:14:07.106Z,99408.37
2019-03-13T05:16:38.290Z,99403.20
2019-03-13T05:19:10.487Z,99403.61
2019-03-13T05:21:41.999Z,99405.34
2019-03-13T05:24:13.222Z,99404.88
2019-03-13T05:26:44.487Z,99410.91
2019-03-13T05:29:16.313Z,99408.72
2019-03-13T05:31:49.354Z,99411.34
2019-03-13T05:34:20.577Z,99413.47
2019-03-13T05:36:52.117Z,99413.50
2019-03-13T05:39:23.328Z,99415.58
2019-03-13T05:41:55.765Z,99413.41
2019-03-13T05:44:27.961Z,99413.87
2019-03-13T05:46:59.589Z,99409.48
2019-03-13T05:49:31.771Z,99417.22
2019-03-13T05:52:03.935Z,99419.72
2019-03-13T05:54:35.697Z,99423.17
2019-03-13T05:57:07.819Z,99422.75
2019-03-13T05:59:39.050Z,99414.96
2019-03-13T06:02:10.315Z,99412.30
2019-03-13T06:04:42.114Z,99415.33
2019-03-13T06:07:13.684Z,99409.23
2019-03-13T06:09:45.168Z,99408.31
2019-03-13T06:12:17.077Z,99401.78
2019-03-13T06:14:48.842Z,99398.69
2019-03-13T06:17:20.009Z,99396.05
2019-03-13T06:19:51.739Z,99395.98
2019-03-13T06:22:22.929Z,99389.09
2019-03-13T06:24:54.569Z,99386.38
2019-03-13T06:27:26.643Z,99385.44
2019-03-13T06:29:58.263Z,99386.34
2019-03-13T06:32:29.503Z,99390.63
2019-03-13T06:35:01.148Z,99390.20
2019-03-13T06:37:32.369Z,99384.92
2019-03-13T06:40:03.896Z,99373.20
2019-03-13T06:42:36.221Z,99378.31
2019-03-13T06:45:09.725Z,99385.67
2019-03-13T06:47:41.269Z,99390.00
2019-03-13T06:50:16.862Z,99387.80
2019-03-13T06:52:48.086Z,99391.65
2019-03-13T06:55:19.604Z,99400.19
2019-03-13T06:57:51.986Z,99392.82
2019-03-13T07:00:45.194Z,99391.00
2019-03-13T07:03:34.434Z,99391.47
2019-03-13T07:06:24.084Z,99390.09
2019-03-13T07:09:00.399Z,99384.85
2019-03-13T07:11:53.291Z,99391.73
2019-03-13T07:14:43.736Z,99397.31
2019-03-13T07:17:35.336Z,99394.24
2019-03-13T07:20:25.565Z,99401.17
2019-03-13T07:23:12.568Z,99391.59
2019-03-13T07:26:01.699Z,99396.75
2019-03-13T07:28:55.213Z,99395.84
2019-03-13T07:31:43.766Z,99395.84
2019-03-13T07:34:32.445Z,99398.82
2019-03-13T07:37:20.953Z,99397.56
2019-03-13T07:40:09.766Z,99395.31
2019-03-13T07:42:55.539Z,99401.84
2019-03-13T07:45:44.736Z,99396.59
2019-03-13T07:48:33.541Z,99409.11
2019-03-13T07:51:19.763Z,99412.09
2019-03-13T07:54:05.647Z,99397.73
2019-03-13T07:56:54.881Z,99394.23
2019-03-13T07:59:53.945Z,99391.14
2019-03-13T08:02:45.626Z,99386.71
2019-03-13T08:05:42.201Z,99395.31
2019-03-13T08:08:41.370Z,99388.28
2019-03-13T08:11:44.416Z,99383.02
2019-03-13T08:14:41.205Z,99385.96
2019-03-13T08:17:44.313Z,99382.05
2019-03-13T08:20:33.075Z,99374.62
2019-03-13T08:23:29.249Z,99373.27
2019-03-13T08:26:22.525Z,99383.56
2019-03-13T08:29:28.280Z,99362.74
2019-03-13T08:32:25.124Z,99356.83
2019-03-13T08:35:26.647Z,99370.27
2019-03-13T08:38:06.068Z,99359.56
2019-03-13T08:41:02.072Z,99359.56
2019-03-13T08:43:54.594Z,99357.62
2019-03-13T08:46:50.756Z,99362.77
2019-03-13T08:49:35.151Z,99351.30
2019-03-13T08:52:40.536Z,99349.38
2019-03-13T08:55:25.779Z,99344.51
2019-03-13T08:58:11.465Z,99352.84
2019-03-13T09:01:01.572Z,99338.45
2019-03-13T09:03:58.693Z,99349.25
2019-03-13T09:07:04.024Z,99321.44
2019-03-13T09:09:49.533Z,99332.16
2019-03-13T09:12:34.309Z,99330.69
2019-03-13T09:15:28.557Z,99322.42
2019-03-13T09:18:17.221Z,99317.80
2019-03-13T09:21:19.773Z,99310.17
2019-03-13T09:24:21.793Z,99314.41
2019-03-13T09:27:21.337Z,99312.59
2019-03-13T09:30:10.296Z,99301.48
2019-03-13T09:33:07.067Z,99295.05
2019-03-13T09:35:59.185Z,99292.22
2019-03-13T09:39:02.277Z,99295.58
2019-03-13T09:41:58.273Z,99297.78
2019-03-13T09:44:56.960Z,99291.62
2019-03-13T09:47:47.033Z,99284.08
2019-03-13T09:50:26.342Z,99302.58
2019-03-13T09:53:22.460Z,99274.92
2019-03-13T09:56:12.602Z,99287.80
2019-03-13T09:59:03.314Z,99289.53
2019-03-13T10:01:49.659Z,99279.27
2019-03-13T10:04:42.331Z,99287.63
2019-03-13T10:07:44.915Z,99295.38
2019-03-13T10:10:35.131Z,99296.02
2019-03-13T10:13:18.634Z,99295.70
2019-03-13T10:16:01.792Z,99294.22
2019-03-13T10:18:52.257Z,99266.74
2019-03-13T10:21:57.632Z,99272.61
2019-03-13T10:24:46.407Z,99277.20
2019-03-13T10:27:27.417Z,99274.23
2019-03-13T10:30:14.737Z,99262.92
2019-03-13T10:32:52.662Z,99270.05
2019-03-13T10:35:52.690Z,99273.12
2019-03-13T10:38:40.533Z,99270.50
2019-03-13T10:41:17.743Z,99278.34
2019-03-13T10:44:08.499Z,99280.66
2019-03-13T10:46:48.795Z,99275.69
2019-03-13T10:49:42.220Z,99267.80
2019-03-13T10:52:41.816Z,99278.30
2019-03-13T10:55:22.703Z,99260.40
2019-03-13T10:58:18.805Z,99268.25
2019-03-13T11:01:07.837Z,99266.95
2019-03-13T11:03:50.719Z,99275.72
2019-03-13T11:06:54.006Z,99265.70
2019-03-13T11:09:36.405Z,99252.48
2019-03-13T11:12:14.702Z,99277.02
2019-03-13T11:15:01.559Z,99270.84
2019-03-13T11:17:52.008Z,99285.63
2019-03-13T11:20:34.878Z,99264.34
2019-03-13T11:23:27.816Z,99279.97
2019-03-13T11:26:26.917Z,99274.67
2019-03-13T11:29:05.360Z,99270.00
2019-03-13T11:32:02.088Z,99270.81
2019-03-13T11:34:58.517Z,99254.69
2019-03-13T11:37:52.250Z,99260.09
2019-03-13T11:40:34.852Z,99247.33
2019-03-13T11:43:41.540Z,99248.00
2019-03-13T11:46:28.996Z,99236.38
2019-03-13T11:49:35.419Z,99237.20
2019-03-13T11:52:34.716Z,99246.52
2019-03-13T11:55:31.888Z,99256.77
2019-03-13T11:58:31.012Z,99223.35
2019-03-13T12:01:20.288Z,99205.78
2019-03-13T12:04:08.834Z,99205.78
2019-03-13T12:06:59.034Z,99237.00
2019-03-13T12:09:49.269Z,99209.55
2019-03-13T12:12:55.058Z,99208.09
2019-03-13T12:15:48.707Z,99213.81
2019-03-13T12:18:38.860Z,99202.64
2019-03-13T12:21:32.395Z,99201.50
2019-03-13T12:24:25.448Z,99212.11
2019-03-13T12:27:16.613Z,99203.58
2019-03-13T12:29:59.450Z,99207.83
2019-03-13T12:32:58.408Z,99205.05
2019-03-13T12:35:51.897Z,99199.52
2019-03-13T12:38:42.405Z,99200.59
2019-03-13T12:41:41.017Z,99210.73
2019-03-13T12:44:25.017Z,99209.17
2019-03-13T12:47:24.042Z,99209.11
2019-03-13T12:50:34.171Z,99206.47
2019-03-13T12:53:34.463Z,99190.52
2019-03-13T12:56:30.013Z,99184.98
2019-03-13T12:59:21.867Z,99187.74
2019-03-13T13:02:22.044Z,99191.39
2019-03-13T13:05:10.756Z,99204.45
2019-03-13T13:08:04.216Z,99189.31
2019-03-13T13:11:01.257Z,99189.52
2019-03-13T13:13:50.232Z,99190.12
2019-03-13T13:16:43.174Z,99186.12
2019-03-13T13:19:14.419Z,99178.94
2019-03-13T13:21:45.942Z,99161.13
2019-03-13T13:24:18.114Z,99165.32
2019-03-13T13:26:50.411Z,99194.33
2019-03-13T13:29:22.741Z,99174.01
2019-03-13T13:31:55.481Z,99168.19
2019-03-13T13:34:27.624Z,99182.41
2019-03-13T13:36:59.575Z,99182.41
2019-03-13T13:39:30.820Z,99172.38
2019-03-13T13:42:02.496Z,99160.45
2019-03-13T13:44:34.290Z,99157.13
2019-03-13T13:47:05.770Z,99154.76
2019-03-13T13:49:37.149Z,99163.99
2019-03-13T13:52:08.479Z,99159.14
2019-03-13T13:54:39.753Z,99156.13
2019-03-13T13:57:11.095Z,99151.48
2019-03-13T13:59:42.352Z,99143.75
2019-03-13T14:02:13.884Z,99135.26
2019-03-13T14:04:45.077Z,99138.38
2019-03-13T14:07:33.319Z,99148.55
2019-03-13T14:10:14.940Z,99133.00
2019-03-13T14:13:08.189Z,99133.90
2019-03-13T14:19:13.347Z,99128.16
2019-03-13T14:21:48.879Z,99130.48
2019-03-13T14:24:41.084Z,99120.84
2019-03-13T14:27:15.818Z,99118.95
2019-03-13T14:32:48.295Z,99134.97
2019-03-13T14:35:19.589Z,99122.99
2019-03-13T14:38:36.996Z,99128.40
2019-03-13T14:41:21.755Z,99123.34
2019-03-13T14:43:53.020Z,99115.53
2019-03-13T14:46:24.979Z,99118.31
2019-03-13T14:48:57.083Z,99107.63
2019-03-13T14:51:29.272Z,99105.52
2019-03-13T14:54:00.545Z,99107.02
2019-03-13T14:56:32.402Z,99101.02
2019-03-13T14:59:03.821Z,99104.13
2019-03-13T15:01:35.237Z,99100.83
2019-03-13T15:04:06.457Z,99102.66
2019-03-13T15:06:38.907Z,99094.75
2019-03-13T15:09:10.286Z,99084.73
2019-03-13T15:11:41.475Z,99092.16
2019-03-13T15:14:12.702Z,99096.20
2019-03-13T15:16:44.244Z,99088.91
2019-03-13T15:19:15.489Z,99086.74
2019-03-13T15:21:46.773Z,99088.61
2019-03-13T15:24:18.578Z,99104.52
2019-03-13T15:26:49.804Z,99114.66
2019-03-13T15:29:21.065Z,99121.95
2019-03-13T15:31:52.959Z,99126.09
2019-03-13T15:34:24.154Z,99111.28
2019-03-13T15:37:02.973Z,99112.05
2019-03-13T15:39:35.099Z,99112.78
2019-03-13T15:42:06.701Z,99112.42
2019-03-13T15:44:37.962Z,99113.09
2019-03-13T15:47:09.166Z,99100.48
2019-03-13T15:49:40.402Z,99112.55
2019-03-13T15:52:11.692Z,99109.95
2019-03-13T15:54:42.906Z,99104.81
2019-03-13T15:57:14.416Z,99107.56
2019-03-13T15:59:46.253Z,99104.45
2019-03-13T16:02:17.820Z,99109.95
2019-03-13T16:04:49.175Z,99104.38
2019-03-13T16:07:21.357Z,99113.92
2019-03-13T16:09:52.616Z,99108.30
2019-03-13T16:12:24.921Z,99118.24
2019-03-13T16:14:56.265Z,99110.44
2019-03-13T16:17:27.786Z,99111.73
2019-03-13T16:19:59.136Z,99112.99
2019-03-13T16:22:30.392Z,99111.69
2019-03-13T16:25:01.644Z,99107.48
2019-03-13T16:27:32.862Z,99112.69
2019-03-13T16:30:05.376Z,99113.98
2019-03-13T16:32:43.766Z,99110.51
2019-03-13T16:35:10.156Z,99104.33
2019-03-13T16:37:41.765Z,99111.25
2019-03-13T16:40:15.180Z,99110.83
2019-03-13T16:42:46.401Z,99106.61
2019-03-13T16:45:17.818Z,99110.52
2019-03-13T16:51:49.686Z,99105.02
2019-03-13T16:54:20.918Z,99103.27
2019-03-13T16:56:52.293Z,99095.98
2019-03-13T16:59:23.991Z,99096.03
2019-03-13T17:01:56.348Z,99090.85
2019-03-13T17:04:28.025Z,99091.27
2019-03-13T17:07:00.427Z,99093.06
2019-03-13T17:09:31.659Z,99077.90
2019-03-13T17:12:02.889Z,99087.39
2019-03-13T17:14:34.378Z,99099.52
2019-03-13T17:17:05.621Z,99087.80
2019-03-13T17:19:37.664Z,99095.66
2019-03-13T17:22:08.976Z,99094.00
2019-03-13T17:24:40.190Z,99093.89
2019-03-13T17:27:11.395Z,99090.98
2019-03-13T17:29:44.514Z,99085.41
2019-03-13T17:32:16.802Z,99078.04
2019-03-13T17:34:48.122Z,99093.58
2019-03-13T17:37:19.479Z,99095.75
2019-03-13T17:39:50.778Z,99095.75
2019-03-13T17:42:22.072Z,99079.34
2019-03-13T17:44:53.841Z,99089.80
2019-03-13T17:47:25.557Z,99093.75
2019-03-13T17:49:57.214Z,99101.66
2019-03-13T17:52:28.483Z,99103.89
2019-03-13T17:54:59.706Z,99108.66
2019-03-13T17:57:31.018Z,99097.94
2019-03-13T18:00:02.593Z,99102.70
2019-03-13T18:02:34.643Z,99113.17
2019-03-13T18:05:06.258Z,99105.44
2019-03-13T18:07:38.056Z,99105.48
2019-03-13T18:10:12.229Z,99091.69
2019-03-13T18:12:43.568Z,99089.10
2019-03-13T18:15:15.060Z,99081.78
2019-03-13T18:17:46.841Z,99081.37
2019-03-13T18:20:19.628Z,99083.53
2019-03-13T18:22:51.034Z,99086.06
2019-03-13T18:25:22.748Z,99091.19
2019-03-13T18:27:54.280Z,99086.91
2019-03-13T18:30:25.649Z,99088.61
2019-03-13T18:32:57.230Z,99092.55
2019-03-13T18:35:28.598Z,99091.20
2019-03-13T18:37:59.981Z,99085.19
2019-03-13T18:40:31.381Z,99080.11
2019-03-13T18:43:02.772Z,99081.42
2019-03-13T18:45:34.288Z,99071.47
2019-03-13T18:48:05.581Z,99077.03
2019-03-13T18:50:36.921Z,99070.11
2019-03-13T18:53:08.206Z,99070.58
2019-03-13T18:55:39.450Z,99077.52
2019-03-13T18:58:13.973Z,99081.41
2019-03-13T19:00:44.363Z,99072.44
2019-03-13T19:03:15.969Z,99076.84
2019-03-13T19:05:47.288Z,99074.30
2019-03-13T19:08:18.941Z,99076.52
2019-03-13T19:10:50.436Z,99088.26
2019-03-13T19:13:22.043Z,99084.80
2019-03-13T19:15:53.732Z,99095.72
2019-03-13T19:18:25.359Z,99087.51
2019-03-13T19:20:58.583Z,99092.70
2019-03-13T19:23:30.037Z,99094.00
2019-03-13T19:26:01.755Z,99090.11
2019-03-13T19:28:33.072Z,99105.31
2019-03-13T19:31:04.739Z,99097.19
2019-03-13T19:33:36.783Z,99094.55
2019-03-13T19:36:08.082Z,99096.33
2019-03-13T19:38:41.139Z,99093.78
2019-03-13T19:41:12.531Z,99095.95
2019-03-13T19:43:43.770Z,99097.25
2019-03-13T19:46:15.174Z,99096.01
2019-03-13T19:48:46.420Z,99099.04
2019-03-13T19:51:18.636Z,99100.00
2019-03-13T19:53:49.988Z,99096.11
2019-03-13T19:56:21.547Z,99109.14
2019-03-13T19:58:52.794Z,99109.57
2019-03-13T20:01:24.474Z,99102.66
2019-03-13T20:03:56.015Z,99098.27
2019-03-13T20:06:28.365Z,99102.06
2019-03-13T20:09:00.042Z,99098.16
2019-03-13T20:11:31.294Z,99102.49
2019-03-13T20:14:03.048Z,99105.53
2019-03-13T20:16:34.399Z,99106.39
2019-03-13T20:19:06.420Z,99106.30
2019-03-13T20:21:38.109Z,99107.05
2019-03-13T20:24:09.771Z,99100.55
2019-03-13T20:26:41.181Z,99107.86
2019-03-13T20:29:12.530Z,99102.66
2019-03-13T20:31:43.899Z,99112.17
2019-03-13T20:34:15.248Z,99112.07
2019-03-13T20:36:46.918Z,99107.30
2019-03-13T20:39:18.555Z,99113.31
2019-03-13T20:41:50.243Z,99120.34
2019-03-13T20:44:22.149Z,99115.09
2019-03-13T20:46:54.335Z,99125.93
2019-03-13T20:49:25.616Z,99127.22
2019-03-13T20:51:57.208Z,99117.59
2019-03-13T20:54:28.492Z,99128.80
2019-03-13T20:57:00.685Z,99115.80
2019-03-13T20:59:32.753Z,99125.75
2019-03-13T21:02:04.525Z,99123.04
2019-03-13T21:04:36.122Z,99123.90
2019-03-13T21:07:07.690Z,99122.13
2019-03-13T21:09:39.266Z,99125.14
2019-03-13T21:12:10.862Z,99114.27
2019-03-13T21:14:42.411Z,99132.45
2019-03-13T21:17:13.795Z,99124.98
2019-03-13T21:19:45.047Z,99132.88
2019-03-13T21:22:16.324Z,99133.27
2019-03-13T21:24:48.551Z,99124.98
2019-03-13T21:27:19.795Z,99126.33
2019-03-13T21:29:51.033Z,99121.03
2019-03-13T21:32:22.375Z,99131.73
2019-03-13T21:34:54.064Z,99136.51
2019-03-13T21:37:25.629Z,99143.48
2019-03-13T21:39:56.981Z,99153.38
2019-03-13T21:42:28.554Z,99151.16
2019-03-13T21:44:59.851Z,99152.35
2019-03-13T21:47:31.163Z,99173.63
2019-03-13T21:50:02.754Z,99169.19
2019-03-13T21:52:34.371Z,99166.59
2019-03-13T21:55:06.100Z,99157.11
2019-03-13T21:57:37.403Z,99166.26
2019-03-13T22:00:16.272Z,99169.67
2019-03-13T22:02:48.212Z,99173.14
2019-03-13T22:05:25.549Z,99167.09
2019-03-13T22:07:52.958Z,99179.64
2019-03-13T22:10:24.573Z,99167.50
2019-03-13T22:12:55.839Z,99181.43
2019-03-13T22:15:27.154Z,99199.57
2019-03-13T22:17:58.506Z,99192.63
2019-03-13T22:20:29.776Z,99198.61
2019-03-13T22:23:01.164Z,99199.09
2019-03-13T22:25:32.459Z,99186.03
2019-03-13T22:28:03.684Z,99204.23
2019-03-13T22:30:34.932Z,99207.73
2019-03-13T22:33:06.625Z,99210.31
2019-03-13T22:35:37.985Z,99206.73
2019-03-13T22:38:09.252Z,99226.18
2019-03-13T22:40:41.438Z,99225.32
2019-03-13T22:43:12.734Z,99215.41
2019-03-13T22:45:44.291Z,99221.95
2019-03-13T22:48:15.583Z,99233.16
2019-03-13T22:50:46.835Z,99252.67
2019-03-13T22:53:18.079Z,99230.20
2019-03-13T22:55:49.433Z,99249.68
2019-03-13T22:58:21.001Z,99258.73
2019-03-13T23:01:04.261Z,99266.10
2019-03-13T23:03:35.953Z,99279.11
2019-03-13T23:06:07.222Z,99297.35
2019-03-13T23:09:04.088Z,99291.73
2019-03-13T23:12:00.820Z,99287.45
2019-03-13T23:14:54.780Z,99291.30
2019-03-13T23:17:47.780Z,99287.08
2019-03-13T23:20:43.164Z,99302.23
2019-03-13T23:23:44.902Z,99296.17
2019-03-13T23:26:31.314Z,99312.65
2019-03-13T23:29:15.668Z,99303.98
2019-03-13T23:32:09.152Z,99304.84
2019-03-13T23:34:51.040Z,99302.63
2019-03-13T23:37:53.222Z,99306.09
2019-03-13T23:40:45.145Z,99313.03
2019-03-13T23:43:34.399Z,99314.77
2019-03-13T23:46:16.264Z,99320.88
2019-03-13T23:49:08.566Z,99333.01
2019-03-13T23:52:13.544Z,99332.57
2019-03-13T23:55:03.327Z,99335.70
2019-03-13T23:57:49.664Z,99336.14
